Terminal Aerodrome Forecast
Issued by NWS Burlington, VT

Home | Current Version | Previous Version | Text Only | Print | Product List | Glossary On
Versions: 1 2 3 4 5 6 7 8 9 10 11 12 13 14 15 16 17 18 19 20 21 22 23 24 25 26 27
100
FTUS41 KBTV 231737
TAFBTV
TAF
KBTV 231737Z 2318/2418 13009G15KT P6SM SCT030 BKN200
     FM232300 11005KT P6SM SCT150
     FM240500 04004KT P6SM VCSH BKN060
     FM240700 02006KT P6SM -SNPL OVC025
     FM241100 02007KT 2SM -FZRAPL BR OVC020
     FM241600 36006KT P6SM -RASNPL OVC008=

USA.gov is the U.S. government's official web portal to all federal, state and local government web resources and services.